Time;durP1;ratioP1;P1;durP2;ratioP2;P2;SDS_P1;SDS_P2;PMS_P1;PMS_P2;Temp;Humidity;BMP_temperature;BMP_pressure;BME280_temperature;BME280_humidity;BME280_pressure;Samples;Min_cycle;Max_cycle;Signal;HPM_P1;HPM_P2
2023/10/06 00:01:21;;;;;;;17.75;6.70;;;;;;;15.35;69.62;94597.06;5022529;28;20052;-78
2023/10/06 00:03:48;;;;;;;12.60;6.18;;;;;;;15.33;69.95;94599.28;5022289;28;20081;-78
2023/10/06 00:06:22;;;;;;;17.42;6.70;;;;;;;15.33;69.84;94599.28;5022363;28;20022;-78
2023/10/06 00:08:51;;;;;;;18.50;6.53;;;;;;;15.29;70.04;94586.81;5022362;28;20322;-78
2023/10/06 00:11:31;;;;;;;11.68;6.35;;;;;;;15.25;70.36;94592.06;5022437;28;20212;-79
2023/10/06 00:14:43;;;;;;;16.48;7.03;;;;;;;15.13;70.84;94583.91;5022398;28;20029;-78
2023/10/06 00:16:43;;;;;;;15.70;6.63;;;;;;;15.14;70.88;94577.41;5011839;28;20351;-78
2023/10/06 00:19:27;;;;;;;13.07;6.82;;;;;;;15.12;70.96;94576.94;5040826;28;20025;-78
2023/10/06 00:24:37;;;;;;;14.30;6.35;;;;;;;15.09;70.54;94582.97;5025904;28;20029;-78
2023/10/06 00:27:03;;;;;;;14.13;6.28;;;;;;;15.05;70.63;94572.88;5025073;28;20705;-79
2023/10/06 00:29:29;;;;;;;16.33;5.55;;;;;;;15.05;70.34;94574.78;5041446;28;20263;-79
2023/10/06 00:34:42;;;;;;;14.30;6.85;;;;;;;15.00;70.52;94564.22;5026283;28;20346;-78
2023/10/06 00:37:11;;;;;;;12.77;5.97;;;;;;;15.01;70.34;94571.16;5025674;28;20224;-77
2023/10/06 00:39:37;;;;;;;12.32;6.43;;;;;;;15.00;70.58;94573.06;5025835;28;20117;-77
2023/10/06 00:42:04;;;;;;;15.43;6.40;;;;;;;14.99;70.30;94576.84;5025731;28;20044;-77
2023/10/06 00:44:30;;;;;;;11.98;5.80;;;;;;;14.96;70.89;94580.19;5025723;28;20030;-77
2023/10/06 00:46:59;;;;;;;19.13;5.70;;;;;;;14.93;70.99;94574.69;5024471;28;20025;-77
2023/10/06 00:49:27;;;;;;;16.92;6.47;;;;;;;14.91;70.88;94572.31;5025589;28;20017;-77
2023/10/06 00:51:53;;;;;;;15.57;6.57;;;;;;;14.95;70.18;94578.59;5025462;28;20041;-77
2023/10/06 00:54:20;;;;;;;18.90;6.18;;;;;;;14.93;70.31;94569.31;5024282;28;20046;-78
2023/10/06 00:56:46;;;;;;;12.95;5.82;;;;;;;14.90;70.19;94570.75;5025306;28;20026;-78
2023/10/06 00:59:12;;;;;;;17.70;5.55;;;;;;;14.94;69.96;94577.03;5025638;28;20024;-78
2023/10/06 01:01:39;;;;;;;13.57;6.43;;;;;;;14.96;70.31;94582.88;5024092;28;20037;-78
2023/10/06 01:06:35;;;;;;;14.20;6.97;;;;;;;14.91;69.78;94583.03;5025633;28;20104;-78
2023/10/06 01:09:15;;;;;;;14.45;5.82;;;;;;;14.92;69.81;94581.94;5040664;28;20049;-78
2023/10/06 01:11:52;;;;;;;12.63;6.10;;;;;;;14.93;69.39;94574.69;5024355;28;20030;-78
2023/10/06 01:14:23;;;;;;;10.85;5.88;;;;;;;14.92;69.89;94573.09;5025094;28;20026;-78
2023/10/06 01:16:53;;;;;;;10.07;5.70;;;;;;;14.91;69.78;94571.53;5023912;28;20030;-78
2023/10/06 01:19:27;;;;;;;12.85;6.65;;;;;;;14.88;70.03;94570.28;5025214;28;20033;-78
2023/10/06 01:21:54;;;;;;;22.42;6.45;;;;;;;14.85;70.10;94565.53;5023772;28;20032;-78
2023/10/06 01:24:38;;;;;;;14.52;6.88;;;;;;;14.75;71.01;94568.59;5023756;28;20153;-78
2023/10/06 01:27:07;;;;;;;11.63;5.93;;;;;;;14.74;71.00;94559.75;5025206;28;20097;-78
2023/10/06 01:29:35;;;;;;;20.73;6.47;;;;;;;14.76;70.72;94562.91;5024382;28;20224;-78
2023/10/06 01:32:04;;;;;;;11.55;5.88;;;;;;;14.77;70.75;94555.63;5024981;28;20213;-78
2023/10/06 01:34:34;;;;;;;12.45;6.10;;;;;;;14.81;70.75;94562.72;5024673;28;20033;-78
2023/10/06 01:37:03;;;;;;;10.70;5.03;;;;;;;14.82;70.98;94575.03;5023718;28;20364;-78
2023/10/06 01:39:31;;;;;;;13.57;6.75;;;;;;;14.83;70.99;94575.81;5023425;28;20050;-78
2023/10/06 01:41:57;;;;;;;11.85;6.05;;;;;;;14.87;70.86;94586.69;5024396;28;20033;-78
2023/10/06 01:44:22;;;;;;;16.88;5.68;;;;;;;14.91;71.22;94587.63;5024499;28;20071;-77
2023/10/06 01:46:57;;;;;;;15.18;5.78;;;;;;;14.91;70.90;94587.63;5024535;28;20026;-78
2023/10/06 01:49:23;;;;;;;17.23;5.40;;;;;;;14.97;70.13;94589.81;5023269;28;20095;-78
2023/10/06 01:51:50;;;;;;;12.45;5.75;;;;;;;14.98;70.17;94577.97;5024222;28;20025;-78
2023/10/06 01:54:25;;;;;;;10.30;5.63;;;;;;;15.01;70.58;94580.00;5023162;28;20255;-79
2023/10/06 01:56:53;;;;;;;11.02;5.05;;;;;;;14.99;70.52;94589.50;5039576;28;20053;-78
2023/10/06 01:59:20;;;;;;;11.18;6.13;;;;;;;14.97;70.59;94592.50;5024280;28;20034;-79
2023/10/06 02:01:46;;;;;;;15.10;6.10;;;;;;;14.91;70.95;94596.47;5039541;28;20041;-78
2023/10/06 02:04:14;;;;;;;13.07;6.18;;;;;;;14.90;71.52;94596.78;5024310;28;20022;-79
2023/10/06 02:06:48;;;;;;;12.80;6.72;;;;;;;14.84;71.99;94593.50;5024083;28;20044;-79
2023/10/06 02:09:18;;;;;;;19.75;6.63;;;;;;;14.83;72.18;94599.97;5024048;28;20037;-79
2023/10/06 02:11:46;;;;;;;14.90;7.28;;;;;;;14.82;72.71;94596.50;5024011;28;20049;-79
2023/10/06 02:14:17;;;;;;;17.20;7.32;;;;;;;14.83;72.66;94586.56;5024364;28;20029;-79
2023/10/06 02:17:18;;;;;;;15.90;6.93;;;;;;;14.89;72.69;94590.63;5025026;28;20036;-80
2023/10/06 02:19:48;;;;;;;23.33;7.80;;;;;;;14.94;72.98;94600.41;5022704;28;20080;-79
2023/10/06 02:22:17;;;;;;;15.10;7.03;;;;;;;14.96;72.94;94601.66;5023833;28;20030;-80
2023/10/06 02:24:42;;;;;;;20.70;7.05;;;;;;;14.97;72.86;94595.19;5022603;28;20063;-79
2023/10/06 02:27:10;;;;;;;16.85;7.35;;;;;;;15.02;72.86;94604.94;5023861;28;20296;-80
2023/10/06 02:29:35;;;;;;;17.70;6.63;;;;;;;14.99;72.97;94598.31;5022765;28;20034;-80
2023/10/06 02:32:06;;;;;;;12.43;6.50;;;;;;;14.99;72.59;94601.00;5038964;28;20072;-79
2023/10/06 02:34:35;;;;;;;13.75;6.30;;;;;;;15.00;72.37;94607.97;5023577;28;20358;-79
2023/10/06 02:37:25;;;;;;;13.15;6.57;;;;;;;15.00;72.27;94610.66;5023551;28;20018;-80
2023/10/06 02:39:50;;;;;;;13.90;6.45;;;;;;;14.98;72.36;94612.88;5001863;28;20073;-77
2023/10/06 02:42:19;;;;;;;12.85;6.18;;;;;;;14.99;72.46;94610.97;5020742;28;20033;-80
2023/10/06 02:44:44;;;;;;;12.95;6.55;;;;;;;15.02;72.87;94616.47;5022013;28;20045;-80
2023/10/06 02:47:10;;;;;;;14.23;6.72;;;;;;;15.01;72.79;94614.91;5022110;28;20045;-80
2023/10/06 02:49:38;;;;;;;13.10;6.30;;;;;;;15.00;72.81;94620.56;5023439;28;20205;-81
2023/10/06 02:52:20;;;;;;;10.35;6.03;;;;;;;15.00;72.46;94602.59;5023575;28;20033;-79
2023/10/06 02:55:09;;;;;;;15.20;6.28;;;;;;;15.04;73.00;94602.72;5023534;28;20046;-79
2023/10/06 02:57:48;;;;;;;14.75;7.03;;;;;;;15.08;73.22;94610.91;5022991;28;20161;-80
2023/10/06 03:03:02;;;;;;;21.90;6.90;;;;;;;15.09;72.39;94609.81;5023333;28;20026;-80
2023/10/06 03:05:32;;;;;;;14.45;6.95;;;;;;;15.09;72.53;94605.22;5023577;28;20109;-79
2023/10/06 03:08:00;;;;;;;14.40;6.35;;;;;;;15.13;72.69;94610.75;5022013;28;20026;-81
2023/10/06 03:10:29;;;;;;;12.40;6.18;;;;;;;15.09;72.20;94601.78;5022176;28;20304;-81
2023/10/06 03:12:57;;;;;;;15.45;6.97;;;;;;;15.10;72.52;94603.34;5023355;28;20017;-79
2023/10/06 03:15:35;;;;;;;14.45;6.45;;;;;;;15.08;72.51;94610.91;5022751;28;20022;-78
2023/10/06 03:18:00;;;;;;;15.02;7.03;;;;;;;15.08;71.70;94616.28;5023098;28;20205;-78
2023/10/06 03:20:30;;;;;;;22.73;5.90;;;;;;;15.07;71.61;94612.81;5023103;28;20053;-77
2023/10/06 03:22:56;;;;;;;13.93;6.63;;;;;;;15.02;71.78;94616.47;5022963;28;20276;-75
2023/10/06 03:25:22;;;;;;;15.23;5.93;;;;;;;14.98;71.66;94612.88;5022685;28;20037;-79
2023/10/06 03:27:54;;;;;;;11.68;5.57;;;;;;;14.78;71.68;94609.00;5022642;28;20014;-75
2023/10/06 03:30:33;;;;;;;;;;;;;;;14.75;71.09;94622.25;5023160;28;20052;-76
2023/10/06 03:32:59;;;;;;;11.45;5.47;;;;;;;14.76;70.80;94621.16;5022569;28;19905;-76
2023/10/06 03:35:35;;;;;;;11.25;5.03;;;;;;;14.78;70.51;94610.91;5021560;28;20025;-76
2023/10/06 03:43:47;;;;;;;12.20;4.47;;;;;;;14.91;69.43;94609.88;5020801;28;20025;-74
2023/10/06 03:46:15;;;;;;;9.88;4.72;;;;;;;14.96;69.14;94612.41;5020990;28;20045;-76
2023/10/06 03:48:41;;;;;;;14.45;4.80;;;;;;;14.99;69.07;94606.38;5020078;28;20025;-75
2023/10/06 03:51:06;;;;;;;20.70;4.97;;;;;;;15.02;68.69;94619.16;5021237;28;20036;-75
2023/10/06 03:53:32;;;;;;;7.38;3.85;;;;;;;15.01;68.26;94614.13;5023350;28;20021;-75
2023/10/06 03:55:58;;;;;;;9.43;4.18;;;;;;;15.02;68.32;94621.03;5024625;28;20316;-75
2023/10/06 03:58:31;;;;;;;11.48;4.00;;;;;;;15.00;68.17;94609.84;5025873;28;20091;-74
2023/10/06 04:00:58;;;;;;;10.88;3.97;;;;;;;15.01;68.22;94612.22;5026394;28;20049;-74
2023/10/06 04:03:23;;;;;;;9.07;4.25;;;;;;;14.99;68.03;94609.06;5026188;28;20026;-74
2023/10/06 04:05:50;;;;;;;12.50;5.07;;;;;;;14.96;68.13;94612.41;5026281;28;20076;-74
2023/10/06 04:08:23;;;;;;;11.38;4.60;;;;;;;14.95;68.44;94605.44;5026269;28;20025;-75
2023/10/06 04:10:51;;;;;;;;;;;;;;;14.96;68.32;94609.72;5026753;28;20045;-75
2023/10/06 04:13:20;;;;;;;14.13;4.68;;;;;;;14.89;68.60;94612.09;5026253;28;19964;-75
2023/10/06 04:15:56;;;;;;;6.38;3.50;;;;;;;14.86;68.47;94612.75;5024546;28;20040;-75
2023/10/06 04:18:24;;;;;;;10.15;4.20;;;;;;;14.88;68.32;94605.19;5024308;28;20030;-74
2023/10/06 04:20:54;;;;;;;10.82;4.45;;;;;;;14.89;68.22;94608.63;5024510;28;20026;-74
2023/10/06 04:23:23;;;;;;;9.60;3.58;;;;;;;14.89;68.10;94614.78;5024322;28;20025;-75
2023/10/06 04:25:54;;;;;;;10.02;4.40;;;;;;;14.92;68.07;94616.03;5024315;28;20101;-75
2023/10/06 04:28:22;;;;;;;9.55;4.22;;;;;;;14.96;67.71;94619.66;5024007;28;20029;-74
2023/10/06 04:30:49;;;;;;;8.13;3.80;;;;;;;14.97;67.82;94619.34;5025500;28;20100;-74
2023/10/06 04:33:16;;;;;;;9.10;4.13;;;;;;;14.96;67.79;94623.16;5025762;28;20025;-75
2023/10/06 04:35:47;;;;;;;9.30;4.38;;;;;;;14.97;68.01;94630.06;5025646;28;20060;-75
2023/10/06 04:38:14;;;;;;;16.05;4.60;;;;;;;14.97;68.09;94630.06;5025715;28;20034;-75
2023/10/06 04:40:42;;;;;;;9.07;4.00;;;;;;;14.95;68.52;94621.56;5025718;28;20022;-75
2023/10/06 04:43:09;;;;;;;14.30;4.75;;;;;;;14.87;68.55;94625.06;5025641;28;20096;-75
2023/10/06 04:45:38;;;;;;;8.95;4.32;;;;;;;14.91;68.82;94642.09;5025612;28;20297;-75
2023/10/06 04:48:07;;;;;;;9.55;4.43;;;;;;;14.90;68.62;94645.09;5025696;28;20022;-74
2023/10/06 04:50:34;;;;;;;11.73;4.35;;;;;;;14.92;68.80;94632.13;5025543;28;20424;-74
2023/10/06 04:53:00;;;;;;;9.25;4.53;;;;;;;14.92;68.81;94635.63;5025436;28;20048;-74
2023/10/06 04:55:26;;;;;;;17.38;4.35;;;;;;;14.94;68.61;94646.84;5025344;28;20025;-75
2023/10/06 04:57:51;;;;;;;16.17;5.20;;;;;;;14.97;68.53;94654.22;5025044;28;20033;-74
2023/10/06 05:00:21;;;;;;;10.27;4.43;;;;;;;14.96;68.78;94652.66;5025400;28;20027;-75
2023/10/06 05:02:47;;;;;;;10.52;4.70;;;;;;;14.97;68.80;94661.50;5025305;28;20029;-75
2023/10/06 05:05:23;;;;;;;16.08;4.35;;;;;;;14.99;69.17;94665.44;5024132;28;20112;-75
2023/10/06 05:07:53;;;;;;;8.10;4.18;;;;;;;15.02;69.11;94666.69;5025227;28;20037;-75
2023/10/06 05:10:21;;;;;;;16.77;5.07;;;;;;;15.02;69.43;94664.00;5025226;28;20316;-75
2023/10/06 05:12:50;;;;;;;13.82;5.32;;;;;;;15.01;69.72;94668.59;5025056;28;21431;-75
2023/10/06 05:15:26;;;;;;;14.57;4.75;;;;;;;15.02;70.09;94675.53;5025003;28;20028;-75
2023/10/06 05:17:58;;;;;;;13.00;4.30;;;;;;;15.07;70.25;94674.56;5024748;28;20034;-76
2023/10/06 05:20:29;;;;;;;14.27;5.82;;;;;;;15.13;69.83;94665.22;5025052;28;20026;-75
2023/10/06 05:23:09;;;;;;;12.18;4.90;;;;;;;15.13;69.83;94675.97;5025002;28;20037;-75
2023/10/06 05:25:37;;;;;;;19.45;5.72;;;;;;;15.18;69.76;94667.75;5024955;28;20026;-75
2023/10/06 05:28:04;;;;;;;13.52;6.30;;;;;;;15.20;69.49;94683.53;5024053;28;20057;-75
2023/10/06 05:30:30;;;;;;;10.77;4.57;;;;;;;15.23;69.54;94682.91;5024824;28;20025;-75
2023/10/06 05:32:58;;;;;;;12.85;5.40;;;;;;;15.31;69.38;94692.81;5023646;28;20103;-75
2023/10/06 05:35:36;;;;;;;14.10;6.80;;;;;;;15.28;68.99;94695.34;5024770;28;20026;-75
2023/10/06 05:38:12;;;;;;;12.52;5.28;;;;;;;15.23;68.90;94686.34;5024307;28;20097;-75
2023/10/06 05:40:38;;;;;;;12.13;5.03;;;;;;;15.25;68.59;94694.09;5024528;28;20370;-75
2023/10/06 05:43:11;;;;;;;12.93;4.60;;;;;;;15.27;68.90;94696.47;5024788;28;20025;-75
2023/10/06 05:45:41;;;;;;;14.43;5.25;;;;;;;15.24;68.38;94698.69;5039950;28;20407;-75
2023/10/06 05:48:15;;;;;;;14.60;4.72;;;;;;;15.33;68.40;94704.03;5023426;28;20212;-75
2023/10/06 05:50:42;;;;;;;13.60;4.35;;;;;;;15.18;68.21;94704.53;5024449;28;20037;-75
2023/10/06 05:53:12;;;;;;;16.05;4.68;;;;;;;15.19;68.23;94703.44;5024245;28;20022;-75
2023/10/06 05:55:39;;;;;;;12.43;4.90;;;;;;;15.20;68.57;94713.88;5024227;28;20029;-75
2023/10/06 05:58:14;;;;;;;14.77;5.25;;;;;;;15.33;68.22;94714.75;5023158;28;20033;-75
2023/10/06 06:00:50;;;;;;;25.35;5.25;;;;;;;15.46;67.84;94707.59;5024237;28;20044;-75
2023/10/06 06:03:20;;;;;;;22.73;5.57;;;;;;;15.51;67.21;94718.19;5024011;28;20025;-75
2023/10/06 06:05:52;;;;;;;14.13;5.00;;;;;;;15.48;67.56;94708.06;5024164;28;20029;-75
2023/10/06 06:08:17;;;;;;;14.05;4.40;;;;;;;15.47;67.03;94719.13;5024165;28;20132;-75
2023/10/06 06:10:43;;;;;;;9.43;4.70;;;;;;;15.51;67.54;94712.81;5023836;28;20301;-75
2023/10/06 06:13:08;;;;;;;14.40;5.47;;;;;;;15.60;67.11;94715.44;5024030;28;20205;-75
2023/10/06 06:15:35;;;;;;;11.60;5.95;;;;;;;15.54;67.36;94711.38;5023875;28;20033;-75
2023/10/06 06:18:01;;;;;;;13.43;4.68;;;;;;;15.65;67.68;94717.94;5023762;28;20033;-75
2023/10/06 06:20:28;;;;;;;15.52;5.47;;;;;;;15.77;67.36;94715.41;5023772;28;20342;-75
2023/10/06 06:23:13;;;;;;;15.15;4.88;;;;;;;15.84;66.33;94717.56;5023710;28;20046;-75
2023/10/06 06:25:39;;;;;;;18.75;4.68;;;;;;;15.79;66.67;94723.09;5023828;28;20101;-75
2023/10/06 06:28:05;;;;;;;10.13;4.50;;;;;;;15.84;66.44;94726.41;5022458;28;20013;-75
2023/10/06 06:30:34;;;;;;;19.98;5.68;;;;;;;15.92;66.64;94729.38;5023781;28;20022;-75
2023/10/06 06:33:04;;;;;;;8.27;4.85;;;;;;;15.95;66.62;94728.72;5023715;28;20022;-75
2023/10/06 06:35:32;;;;;;;15.82;5.00;;;;;;;16.02;66.70;94729.00;5023678;28;20022;-75
2023/10/06 06:38:01;;;;;;;10.60;4.70;;;;;;;16.06;66.33;94732.63;5023401;28;20478;-75
2023/10/06 06:40:30;;;;;;;19.48;6.38;;;;;;;16.10;65.91;94728.16;5022307;28;20021;-75
2023/10/06 06:42:56;;;;;;;19.63;5.20;;;;;;;16.10;66.08;94735.41;5023758;28;20024;-75
2023/10/06 06:45:25;;;;;;;13.75;5.35;;;;;;;16.09;66.04;94750.78;5023372;28;20018;-75
2023/10/06 06:47:51;;;;;;;13.25;5.22;;;;;;;16.08;66.57;94756.47;5022125;28;20018;-75
2023/10/06 06:50:17;;;;;;;10.63;4.80;;;;;;;16.17;65.80;94749.16;5023454;28;20033;-75
2023/10/06 06:52:47;;;;;;;14.70;5.18;;;;;;;16.11;66.50;94750.47;5023424;28;20037;-75
2023/10/06 06:55:13;;;;;;;12.23;5.38;;;;;;;16.03;67.04;94754.75;5023456;28;20320;-73
2023/10/06 06:57:43;;;;;;;16.05;5.88;;;;;;;16.05;66.76;94757.91;5023100;28;20037;-74
2023/10/06 07:00:15;;;;;;;13.57;5.50;;;;;;;16.07;66.97;94757.59;5023086;28;20312;-74
2023/10/06 07:02:45;;;;;;;11.73;5.45;;;;;;;16.18;66.91;94751.53;5023122;28;20018;-75
2023/10/06 07:05:12;;;;;;;13.38;4.95;;;;;;;16.22;66.93;94757.00;5022943;28;20021;-75
2023/10/06 07:07:43;;;;;;;11.93;5.32;;;;;;;16.32;66.07;94758.53;5022856;28;20075;-75
2023/10/06 07:10:15;;;;;;;15.65;5.97;;;;;;;16.31;66.44;94767.75;5022999;28;20266;-75
2023/10/06 07:12:44;;;;;;;16.33;5.63;;;;;;;16.27;66.75;94766.81;5022830;28;20022;-74
2023/10/06 07:15:17;;;;;;;13.05;5.30;;;;;;;16.34;66.50;94759.78;5022958;28;20029;-75
2023/10/06 07:17:56;;;;;;;7.70;5.32;;;;;;;16.46;66.33;94761.75;5022987;28;20045;-74
2023/10/06 07:20:27;;;;;;;12.02;4.82;;;;;;;16.59;65.61;94749.97;5022901;28;20064;-74
2023/10/06 07:22:55;;;;;;;10.73;5.43;;;;;;;16.67;65.35;94750.19;5022886;28;20021;-75
2023/10/06 07:25:24;;;;;;;13.77;5.40;;;;;;;16.71;64.82;94751.94;5023110;28;20040;-74
2023/10/06 07:27:52;;;;;;;28.45;6.53;;;;;;;16.84;64.29;94760.84;5022587;28;20017;-74
2023/10/06 07:30:22;;;;;;;17.67;6.35;;;;;;;16.91;63.79;94761.09;5022729;28;20022;-74
2023/10/06 07:32:48;;;;;;;15.35;6.00;;;;;;;16.97;63.86;94753.59;5023033;28;20216;-76
2023/10/06 07:35:15;;;;;;;23.95;5.82;;;;;;;17.05;63.28;94745.44;5022568;28;20022;-77
2023/10/06 07:37:43;;;;;;;13.02;5.68;;;;;;;17.07;62.69;94738.94;5022723;28;20325;-76
2023/10/06 07:40:18;;;;;;;14.02;5.63;;;;;;;17.09;62.97;94744.78;5022998;28;20073;-76
2023/10/06 07:42:46;;;;;;;12.10;6.03;;;;;;;17.10;62.98;94741.00;5022851;28;20068;-77
2023/10/06 07:45:13;;;;;;;20.90;6.47;;;;;;;17.19;62.73;94749.75;5021742;28;20045;-78
2023/10/06 07:47:42;;;;;;;19.15;6.10;;;;;;;17.17;62.41;94747.38;5022793;28;20017;-75
2023/10/06 07:50:09;;;;;;;21.17;6.90;;;;;;;17.19;62.69;94742.44;5023170;28;20403;-76
2023/10/06 07:52:36;;;;;;;18.30;7.72;;;;;;;17.25;62.70;94745.72;5022898;28;20026;-78
2023/10/06 07:55:05;;;;;;;12.00;6.35;;;;;;;17.35;62.19;94739.13;5022958;28;20026;-76
2023/10/06 07:57:32;;;;;;;14.13;5.63;;;;;;;17.41;62.52;94738.56;5022574;28;20037;-76
2023/10/06 08:00:06;;;;;;;18.67;6.20;;;;;;;17.54;61.44;94744.75;5022678;28;20022;-76
2023/10/06 08:02:31;;;;;;;13.20;5.43;;;;;;;17.53;61.39;94750.50;5022707;28;20021;-76
2023/10/06 08:04:57;;;;;;;18.13;6.15;;;;;;;17.53;61.42;94739.72;5023033;28;20075;-76
2023/10/06 08:07:30;;;;;;;12.48;5.95;;;;;;;17.64;60.47;94738.91;5022698;28;20092;-76
2023/10/06 08:09:59;;;;;;;16.55;6.20;;;;;;;17.69;60.73;94740.63;5022474;28;20056;-76
2023/10/06 08:12:24;;;;;;;12.93;5.63;;;;;;;17.67;60.46;94737.47;5022596;28;20030;-76
2023/10/06 08:14:50;;;;;;;13.55;5.63;;;;;;;17.52;60.51;94735.44;5022559;28;20025;-76
2023/10/06 08:17:18;;;;;;;15.90;5.95;;;;;;;17.63;60.45;94742.75;5022314;28;20029;-76
2023/10/06 08:19:46;;;;;;;20.20;6.25;;;;;;;17.64;59.88;94738.13;5022562;28;20033;-76
2023/10/06 08:22:11;;;;;;;18.42;6.00;;;;;;;17.63;59.72;94737.38;5022608;28;20028;-76
2023/10/06 08:24:38;;;;;;;14.57;6.13;;;;;;;17.67;59.28;94748.25;5022537;28;20037;-76
2023/10/06 08:27:03;;;;;;;15.43;5.75;;;;;;;17.72;59.53;94739.94;5022720;28;20197;-76
2023/10/06 08:29:30;;;;;;;13.25;5.80;;;;;;;17.69;59.21;94743.31;5022334;28;20048;-76
2023/10/06 08:31:57;;;;;;;17.05;6.53;;;;;;;17.67;59.84;94748.25;5022164;28;20018;-76
2023/10/06 08:34:23;;;;;;;18.08;5.93;;;;;;;17.63;59.94;94747.38;5022360;28;20026;-76
2023/10/06 08:36:48;;;;;;;18.67;6.10;;;;;;;17.70;59.97;94747.56;5022163;28;20114;-78
2023/10/06 08:39:14;;;;;;;9.60;5.30;;;;;;;17.81;59.96;94747.94;5022595;28;20073;-77
2023/10/06 08:41:43;;;;;;;16.50;5.75;;;;;;;17.93;58.68;94744.47;5025911;28;20025;-76
2023/10/06 08:44:12;;;;;;;13.85;5.45;;;;;;;17.98;58.79;94744.25;5026054;28;20068;-77
2023/10/06 08:46:41;;;;;;;20.23;5.78;;;;;;;18.05;58.29;94736.38;5025929;28;20331;-77
2023/10/06 08:49:08;;;;;;;15.50;6.72;;;;;;;18.02;57.81;94759.41;5026068;28;20025;-78
2023/10/06 08:51:34;;;;;;;16.40;5.72;;;;;;;18.02;57.66;94745.16;5026021;28;20029;-76
2023/10/06 08:54:02;;;;;;;15.27;6.70;;;;;;;18.09;57.79;94753.44;5025760;28;20018;-77
2023/10/06 08:56:28;;;;;;;16.35;5.82;;;;;;;18.14;57.70;94739.75;5025768;28;20243;-77
2023/10/06 08:58:53;;;;;;;13.63;6.35;;;;;;;18.25;57.43;94748.16;5025724;28;20370;-77
2023/10/06 09:01:20;;;;;;;16.52;6.43;;;;;;;18.30;56.75;94744.41;5025492;28;20021;-77
2023/10/06 09:03:49;;;;;;;17.15;6.32;;;;;;;18.33;56.82;94743.75;5025268;28;20017;-77
2023/10/06 09:06:15;;;;;;;13.05;5.28;;;;;;;18.27;57.27;94745.88;5025692;28;20044;-77
2023/10/06 09:08:43;;;;;;;12.50;6.13;;;;;;;18.27;57.03;94750.50;5024197;28;20033;-77
2023/10/06 09:11:10;;;;;;;11.85;6.13;;;;;;;18.29;56.68;94737.47;5025277;28;20029;-76
2023/10/06 09:13:36;;;;;;;17.73;7.55;;;;;;;18.25;56.27;94746.22;5025541;28;20261;-76
2023/10/06 09:16:03;;;;;;;16.42;5.25;;;;;;;18.23;56.10;94743.06;5025093;28;20021;-77
2023/10/06 09:18:29;;;;;;;14.77;6.22;;;;;;;18.22;56.68;94735.34;5025259;28;20347;-77
2023/10/06 09:21:19;;;;;;;19.95;7.35;;;;;;;18.33;56.57;94735.66;5025354;28;20053;-77
2023/10/06 09:23:45;;;;;;;14.10;6.20;;;;;;;18.34;56.55;94731.81;5019241;28;20316;-78
2023/10/06 09:26:19;;;;;;;13.43;6.25;;;;;;;18.43;55.75;94735.19;5025058;28;20072;-77
2023/10/06 09:28:48;;;;;;;13.63;5.63;;;;;;;18.47;55.59;94732.59;5025218;28;20022;-77
2023/10/06 09:31:13;;;;;;;14.00;5.97;;;;;;;18.43;56.05;94735.19;5025345;28;20045;-77
2023/10/06 09:33:39;;;;;;;17.25;6.90;;;;;;;18.54;55.76;94733.59;5023990;28;20081;-77
2023/10/06 09:36:08;;;;;;;19.70;6.50;;;;;;;18.61;55.46;94728.38;5040400;28;20095;-78
2023/10/06 09:38:44;;;;;;;14.35;5.70;;;;;;;18.67;55.27;94728.16;5025051;28;20049;-77
2023/10/06 09:41:11;;;;;;;11.23;5.00;;;;;;;18.70;54.93;94732.84;5025014;28;20332;-77
2023/10/06 09:43:40;;;;;;;21.23;6.40;;;;;;;18.69;54.48;94721.28;5025009;28;20026;-78
2023/10/06 09:46:11;;;;;;;13.52;6.18;;;;;;;18.75;55.13;94729.91;5025099;28;20030;-77
2023/10/06 09:48:42;;;;;;;28.45;6.28;;;;;;;18.82;53.74;94724.72;5024565;28;20102;-77
2023/10/06 09:51:19;;;;;;;14.27;5.93;;;;;;;18.81;54.68;94720.47;5023737;28;20029;-77
2023/10/06 09:53:47;;;;;;;15.27;6.65;;;;;;;18.87;54.80;94732.59;5024429;28;20069;-79
2023/10/06 09:56:16;;;;;;;13.55;5.40;;;;;;;18.96;54.19;94729.75;5024081;28;20254;-76
2023/10/06 09:58:48;;;;;;;14.38;5.50;;;;;;;19.03;54.02;94725.31;5024508;28;20034;-76
2023/10/06 10:01:15;;;;;;;9.10;5.32;;;;;;;19.05;52.87;94733.09;5023355;28;20076;-76
2023/10/06 10:03:41;;;;;;;14.65;6.45;;;;;;;19.10;52.77;94722.00;5024418;28;20080;-76
2023/10/06 10:06:07;;;;;;;16.42;5.55;;;;;;;19.11;52.99;94715.50;5024430;28;20025;-76
2023/10/06 10:08:34;;;;;;;16.55;6.13;;;;;;;19.16;52.77;94717.94;5024610;28;20076;-76
2023/10/06 10:11:14;;;;;;;16.58;6.30;;;;;;;19.14;52.92;94722.13;5024044;28;20215;-75
2023/10/06 10:13:57;;;;;;;19.25;6.32;;;;;;;19.13;52.33;94721.34;5024148;28;20029;-76
2023/10/06 10:16:52;;;;;;;15.27;5.95;;;;;;;19.11;52.70;94717.38;5023905;28;20033;-76
2023/10/06 10:19:22;;;;;;;22.65;5.85;;;;;;;19.19;52.96;94713.75;5023777;28;20025;-76
2023/10/06 10:21:47;;;;;;;14.95;6.20;;;;;;;19.21;52.67;94704.16;5023820;28;20026;-77
2023/10/06 10:24:19;;;;;;;12.68;5.35;;;;;;;19.33;51.73;94706.00;5024155;28;20076;-77
2023/10/06 10:26:50;;;;;;;10.90;5.47;;;;;;;19.26;51.70;94711.22;5023760;28;20018;-77
2023/10/06 10:29:18;;;;;;;15.68;5.68;;;;;;;19.22;51.80;94694.91;5023884;28;20024;-77
2023/10/06 10:31:46;;;;;;;13.90;5.45;;;;;;;19.26;51.47;94700.41;5023998;28;20052;-77
2023/10/06 10:34:20;;;;;;;11.70;5.45;;;;;;;19.24;50.91;94691.88;5023834;28;20316;-78
2023/10/06 10:37:06;;;;;;;13.07;5.88;;;;;;;19.18;50.62;94685.16;5039026;28;20062;-77
2023/10/06 10:39:50;;;;;;;13.68;5.75;;;;;;;19.14;50.64;94681.59;5016220;28;20038;-78
2023/10/06 10:42:37;;;;;;;11.43;6.43;;;;;;;19.07;50.88;94681.38;5023429;28;20116;-77
2023/10/06 10:45:30;;;;;;;16.25;6.13;;;;;;;19.08;50.18;94691.84;5023685;28;20032;-77
2023/10/06 10:47:58;;;;;;;;;;;;;;;19.00;49.89;94679.28;5023661;28;20026;-77
2023/10/06 10:50:46;;;;;;;16.73;5.10;;;;;;;18.94;50.03;94673.34;5023334;28;19905;-76
2023/10/06 10:53:11;;;;;;;15.30;5.50;;;;;;;19.00;50.93;94673.88;5023433;28;20021;-78
2023/10/06 10:55:37;;;;;;;10.75;5.00;;;;;;;19.06;50.05;94667.09;5023265;28;20087;-78
2023/10/06 10:58:02;;;;;;;19.13;5.85;;;;;;;19.18;49.89;94671.66;5023547;28;20064;-77
2023/10/06 11:00:29;;;;;;;20.38;5.15;;;;;;;19.30;48.79;94678.91;5023404;28;20026;-77
2023/10/06 11:02:57;;;;;;;10.38;5.32;;;;;;;19.28;48.67;94670.34;5022335;28;20017;-78
2023/10/06 11:05:23;;;;;;;11.50;5.07;;;;;;;19.23;48.21;94664.06;5022921;28;20144;-76
2023/10/06 11:07:55;;;;;;;8.23;4.60;;;;;;;19.27;47.90;94663.38;5023128;28;20116;-76
2023/10/06 11:10:22;;;;;;;14.43;5.38;;;;;;;19.36;48.20;94672.88;5023191;28;20072;-77
2023/10/06 11:12:54;;;;;;;14.00;5.38;;;;;;;19.44;46.62;94661.09;5023092;28;20133;-77
2023/10/06 11:15:27;;;;;;;9.75;4.20;;;;;;;19.49;47.21;94651.94;5022947;28;20197;-77
2023/10/06 11:17:56;;;;;;;24.20;5.10;;;;;;;19.59;45.76;94645.22;5022922;28;20048;-76
2023/10/06 11:20:27;;;;;;;12.43;4.60;;;;;;;19.57;45.26;94650.19;5023049;28;20031;-76
2023/10/06 11:22:59;;;;;;;11.02;5.13;;;;;;;19.66;45.03;94648.06;5022752;28;20022;-76
2023/10/06 11:25:29;;;;;;;14.13;4.53;;;;;;;19.75;44.70;94648.69;5022584;28;20022;-77
2023/10/06 11:28:02;;;;;;;8.40;4.25;;;;;;;19.73;44.26;94640.16;5022817;28;20037;-76
2023/10/06 11:30:28;;;;;;;11.95;4.80;;;;;;;19.80;42.70;94637.63;5021599;28;20041;-76
2023/10/06 11:32:57;;;;;;;11.40;4.90;;;;;;;19.89;42.42;94642.84;5022647;28;20209;-76
2023/10/06 11:35:22;;;;;;;16.17;4.53;;;;;;;19.91;42.70;94637.84;5022762;28;20076;-76
2023/10/06 11:37:48;;;;;;;17.48;4.57;;;;;;;19.97;42.75;94649.19;5022454;28;20038;-76
2023/10/06 11:40:15;;;;;;;13.68;4.80;;;;;;;20.00;42.36;94645.75;5021620;28;20026;-76
2023/10/06 11:42:41;;;;;;;19.30;5.60;;;;;;;20.08;42.54;94650.19;5022542;28;20316;-76
2023/10/06 11:45:24;;;;;;;7.93;4.13;;;;;;;20.03;41.57;94639.66;5022891;28;20247;-76
2023/10/06 11:47:51;;;;;;;16.70;4.80;;;;;;;20.07;41.77;94643.22;5022701;28;20014;-77
2023/10/06 11:50:24;;;;;;;10.63;4.43;;;;;;;20.03;40.16;94647.78;5022549;28;20024;-77
2023/10/06 11:52:50;;;;;;;12.85;5.18;;;;;;;20.00;40.60;94645.75;5022595;28;20083;-77
2023/10/06 11:55:24;;;;;;;16.42;3.95;;;;;;;19.96;40.23;94644.91;5022414;28;20049;-77